METAR Data
IDs: Format: Raw Decoded Include TAF

Data at: 0235 UTC 15 Aug 2020

METAR for:KGAI (Gaithersburg/Montgom, MD, US)
Text:KGAI 150156Z AUTO 00000KT 10SM BKN090 OVC100 21/21 A3002 RMK AO2 RAE44 SLP175 P0005 T02110206
Temperature: 21.1°C ( 70°F)
Dewpoint: 20.6°C ( 69°F) [RH = 97%]
Pressure (altimeter):30.02 inches Hg (1016.7 mb) [Sea level pressure: 1017.5 mb]
Winds:calm
Visibility:10 or more sm (16+ km)
Ceiling:9000 feet AGL
Clouds: broken clouds at 9000 feet AGL, overcast cloud deck at 10000 feet AGL
QC Flag:automated observation with no human augmentation